Time;durP1;ratioP1;P1;durP2;ratioP2;P2;SDS_P1;SDS_P2;PMS_P1;PMS_P2;Temp;Humidity;BMP_temperature;BMP_pressure;BME280_temperature;BME280_humidity;BME280_pressure;Samples;Min_cycle;Max_cycle;Signal;HPM_P1;HPM_P2
2023/04/12 04:22:32;;;;;;;1.42;0.88;;;;;;;7.98;100.00;99261.94;5089484;28;20885;-67
2023/04/12 04:25:01;;;;;;;0.73;0.70;;;;;;;8.01;100.00;99256.25;5088287;28;20443;-68
2023/04/12 04:27:33;;;;;;;1.33;0.73;;;;;;;8.03;100.00;99251.59;5087867;28;20039;-67
2023/04/12 04:30:01;;;;;;;1.58;0.85;;;;;;;8.05;100.00;99247.75;5088111;28;20074;-68
2023/04/12 04:32:27;;;;;;;1.35;1.10;;;;;;;8.10;100.00;99228.66;5088175;28;20394;-68
2023/04/12 04:34:58;;;;;;;;;;;;;;;8.06;100.00;99230.84;5088524;28;20602;-67
2023/04/12 04:37:26;;;;;;;3.05;0.60;;;;;;;8.07;100.00;99234.31;5087658;28;20352;-67
2023/04/12 04:39:51;;;;;;;0.77;0.60;;;;;;;8.13;100.00;99241.53;5088142;28;20039;-67
2023/04/12 04:42:17;;;;;;;0.85;0.75;;;;;;;8.13;100.00;99233.59;5087825;28;20028;-66
2023/04/12 04:45:01;;;;;;;1.85;0.80;;;;;;;8.20;100.00;99233.69;5087882;28;20122;-67
2023/04/12 04:47:29;;;;;;;1.15;0.80;;;;;;;8.21;100.00;99232.66;5087391;28;20040;-67
2023/04/12 04:49:58;;;;;;;0.95;0.65;;;;;;;8.22;100.00;99243.13;5089088;28;20093;-67
2023/04/12 04:52:25;;;;;;;1.42;0.93;;;;;;;8.19;100.00;99237.34;5087709;28;20035;-68
2023/04/12 04:54:56;;;;;;;0.88;0.82;;;;;;;8.25;100.00;99228.66;5087644;28;20071;-67
2023/04/12 04:57:25;;;;;;;1.05;0.70;;;;;;;8.20;100.00;99223.88;5087254;28;20060;-67
2023/04/12 04:59:53;;;;;;;1.38;0.80;;;;;;;8.24;100.00;99222.53;5087569;28;20031;-66
2023/04/12 05:02:18;;;;;;;0.70;0.70;;;;;;;8.22;100.00;99221.91;5087471;28;20131;-67
2023/04/12 05:04:44;;;;;;;0.88;0.68;;;;;;;8.20;100.00;99225.72;5088915;28;20064;-67
2023/04/12 05:07:13;;;;;;;0.50;0.50;;;;;;;8.20;100.00;99220.41;5087065;28;20102;-67
2023/04/12 05:09:40;;;;;;;1.27;0.90;;;;;;;8.24;100.00;99222.53;5087358;28;20040;-67
2023/04/12 05:12:06;;;;;;;1.45;0.88;;;;;;;8.24;100.00;99216.41;5087386;28;20025;-67
2023/04/12 05:14:31;;;;;;;1.42;0.90;;;;;;;8.19;100.00;99203.69;5087327;28;20386;-67
2023/04/12 05:16:57;;;;;;;2.03;1.17;;;;;;;8.21;100.00;99204.31;5083559;28;20078;-67
2023/04/12 05:19:22;;;;;;;0.63;0.60;;;;;;;8.24;100.00;99203.13;5086974;28;20036;-67
2023/04/12 05:21:48;;;;;;;0.75;0.73;;;;;;;8.26;100.00;99201.13;5087062;28;20516;-67
2023/04/12 05:24:13;;;;;;;1.00;0.70;;;;;;;8.31;100.00;99188.94;5088389;28;20070;-67
2023/04/12 05:26:40;;;;;;;0.82;0.82;;;;;;;8.26;100.00;99187.84;5087111;28;20036;-53
2023/04/12 05:29:11;;;;;;;1.10;0.70;;;;;;;8.36;100.00;99177.81;5086908;28;20036;-63
2023/04/12 05:31:37;;;;;;;0.65;0.57;;;;;;;8.40;100.00;99171.13;5086526;28;20036;-65
2023/04/12 05:34:06;;;;;;;0.65;0.60;;;;;;;8.45;100.00;99167.91;5073024;28;20040;-64
2023/04/12 05:36:35;;;;;;;0.90;0.80;;;;;;;8.45;100.00;99159.94;5073200;28;20036;-63
2023/04/12 05:39:02;;;;;;;1.80;1.10;;;;;;;8.48;100.00;99147.16;5073089;28;20094;-64
2023/04/12 05:41:30;;;;;;;1.00;0.82;;;;;;;8.53;100.00;99138.59;5073168;28;20493;-63
2023/04/12 05:43:56;;;;;;;1.40;0.80;;;;;;;8.55;100.00;99137.44;5074563;28;20043;-64
2023/04/12 05:46:22;;;;;;;2.50;0.95;;;;;;;8.56;100.00;99132.94;5073092;28;20046;-64
2023/04/12 05:48:49;;;;;;;1.20;0.65;;;;;;;8.56;100.00;99127.63;5072829;28;20094;-63
2023/04/12 05:51:15;;;;;;;0.95;0.90;;;;;;;8.60;100.00;99126.22;5073238;28;20025;-64
2023/04/12 05:53:41;;;;;;;0.98;0.65;;;;;;;8.61;100.00;99128.72;5073409;28;20064;-63
2023/04/12 05:56:07;;;;;;;1.25;0.90;;;;;;;8.65;100.00;99121.19;5074334;28;20066;-61
2023/04/12 05:58:33;;;;;;;0.75;0.75;;;;;;;8.63;100.00;99121.38;5072725;28;20033;-62
2023/04/12 06:00:59;;;;;;;0.70;0.70;;;;;;;8.60;100.00;99112.94;5073009;28;20086;-64
2023/04/12 06:03:25;;;;;;;1.63;0.80;;;;;;;8.67;100.00;99113.84;5072864;28;20037;-63
2023/04/12 06:05:53;;;;;;;3.08;1.35;;;;;;;8.65;100.00;99118.53;5072864;28;20194;-62
2023/04/12 06:08:19;;;;;;;1.98;1.38;;;;;;;8.70;100.00;99098.38;5072725;28;20047;-64
2023/04/12 06:10:44;;;;;;;2.22;1.63;;;;;;;8.71;100.00;99096.53;5073049;28;20040;-64
2023/04/12 06:13:11;;;;;;;1.23;1.00;;;;;;;8.75;100.00;99095.16;5072752;28;20100;-64
2023/04/12 06:15:40;;;;;;;1.92;1.05;;;;;;;8.73;100.00;99091.84;5072594;28;20032;-62
2023/04/12 06:18:06;;;;;;;2.97;1.70;;;;;;;8.74;100.00;99088.22;5072287;28;20055;-61
2023/04/12 06:20:31;;;;;;;3.38;1.77;;;;;;;8.72;100.00;99082.25;5072362;28;20083;-61
2023/04/12 06:22:57;;;;;;;2.75;2.17;;;;;;;8.77;100.00;99079.84;5072603;28;20063;-64
2023/04/12 06:25:24;;;;;;;3.63;2.08;;;;;;;8.85;100.00;99077.06;5072401;28;20048;-62
2023/04/12 06:27:51;;;;;;;2.63;1.75;;;;;;;8.85;100.00;99069.09;5072177;28;20079;-62
2023/04/12 06:30:18;;;;;;;2.28;1.30;;;;;;;8.91;100.00;99064.84;5055808;28;20562;-63
2023/04/12 06:32:45;;;;;;;2.08;1.40;;;;;;;8.97;100.00;99058.78;5072300;28;20068;-64
2023/04/12 06:35:10;;;;;;;4.95;2.35;;;;;;;9.06;100.00;99054.16;5072287;28;20079;-63
2023/04/12 06:37:36;;;;;;;2.15;1.48;;;;;;;9.08;100.00;99042.34;5071925;28;20041;-63
2023/04/12 06:40:02;;;;;;;3.03;1.75;;;;;;;9.14;100.00;99035.44;5055531;28;20047;-63
2023/04/12 06:42:27;;;;;;;6.00;3.42;;;;;;;9.19;100.00;99035.66;5073345;28;20366;-62
2023/04/12 06:44:54;;;;;;;9.57;4.03;;;;;;;9.21;100.00;99021.19;5071099;28;20169;-61
2023/04/12 06:47:21;;;;;;;11.77;5.32;;;;;;;9.27;100.00;99021.44;5072823;28;20479;-63
2023/04/12 06:49:46;;;;;;;7.82;3.85;;;;;;;9.31;100.00;99012.03;5072928;28;20024;-61
2023/04/12 06:52:12;;;;;;;5.47;3.05;;;;;;;9.39;100.00;99007.41;5073122;28;20044;-62
2023/04/12 06:54:38;;;;;;;3.95;2.28;;;;;;;9.41;100.00;99008.00;5073121;28;20052;-61
2023/04/12 06:57:07;;;;;;;3.42;2.53;;;;;;;9.51;100.00;99007.66;5072832;28;20043;-62
2023/04/12 06:59:33;;;;;;;1.50;1.10;;;;;;;9.52;100.00;99004.81;5073098;28;20047;-58
2023/04/12 07:01:58;;;;;;;0.73;0.73;;;;;;;9.55;100.00;99000.13;5073042;28;20044;-61
2023/04/12 07:04:24;;;;;;;2.90;1.05;;;;;;;9.56;100.00;98994.59;5073092;28;20124;-61
2023/04/12 07:06:49;;;;;;;1.27;0.95;;;;;;;9.59;100.00;98986.25;5072748;28;20482;-63
2023/04/12 07:09:14;;;;;;;3.20;1.17;;;;;;;9.65;100.00;98989.91;5071520;28;20120;-62
2023/04/12 07:11:40;;;;;;;2.88;1.40;;;;;;;9.76;100.00;98981.38;5072737;28;20504;-64
2023/04/12 07:14:05;;;;;;;1.75;0.98;;;;;;;9.75;100.00;98979.75;5072826;28;20039;-65
2023/04/12 07:16:31;;;;;;;2.28;1.35;;;;;;;9.81;100.00;98980.81;5072779;28;20429;-65
2023/04/12 07:18:58;;;;;;;1.50;1.00;;;;;;;9.78;100.00;98958.91;5072526;28;20043;-63
2023/04/12 07:21:23;;;;;;;2.15;1.15;;;;;;;9.82;100.00;98954.00;5072701;28;20040;-65
2023/04/12 07:23:50;;;;;;;2.08;1.00;;;;;;;9.85;100.00;98942.97;5072646;28;20127;-65
2023/04/12 07:26:17;;;;;;;3.63;0.98;;;;;;;9.87;100.00;98935.59;5072562;28;20505;-65
2023/04/12 07:28:42;;;;;;;1.60;1.45;;;;;;;9.93;100.00;98928.69;5072234;28;20097;-65
2023/04/12 07:31:08;;;;;;;1.98;1.00;;;;;;;9.96;100.00;98923.75;5072414;28;20508;-64
2023/04/12 07:33:35;;;;;;;1.75;1.00;;;;;;;10.00;100.00;98910.88;5072433;28;20029;-63
2023/04/12 07:36:01;;;;;;;3.67;1.60;;;;;;;10.04;100.00;98904.13;5072410;28;20117;-66
2023/04/12 07:38:26;;;;;;;2.65;1.50;;;;;;;10.11;100.00;98890.84;5072042;28;20522;-66
2023/04/12 07:40:53;;;;;;;1.75;1.10;;;;;;;10.12;100.00;98893.31;5072416;28;20033;-65
2023/04/12 07:43:19;;;;;;;2.97;1.33;;;;;;;10.17;100.00;98892.69;5072333;28;20068;-65
2023/04/12 07:45:44;;;;;;;2.10;1.17;;;;;;;10.25;100.00;98888.03;5072074;28;20079;-66
2023/04/12 07:48:10;;;;;;;1.45;1.10;;;;;;;10.31;100.00;98895.19;5071980;28;20521;-65
2023/04/12 07:50:37;;;;;;;2.22;1.27;;;;;;;10.36;100.00;98896.41;5072209;28;20048;-64
2023/04/12 07:53:22;;;;;;;2.03;1.30;;;;;;;10.41;100.00;98897.44;5072221;28;20040;-64
2023/04/12 07:55:48;;;;;;;2.65;1.27;;;;;;;10.38;100.00;98897.03;5071816;28;20449;-65
2023/04/12 07:58:14;;;;;;;1.77;1.13;;;;;;;10.41;100.00;98896.63;5071697;28;20513;-63
2023/04/12 08:00:40;;;;;;;1.50;1.40;;;;;;;10.46;100.00;98908.28;5070980;28;20118;-64
2023/04/12 08:03:05;;;;;;;1.13;1.02;;;;;;;10.51;100.00;98913.03;5072132;28;20488;-64
2023/04/12 08:05:31;;;;;;;1.30;1.20;;;;;;;10.57;100.00;98910.34;5072024;28;20107;-62
2023/04/12 08:07:56;;;;;;;2.88;1.23;;;;;;;10.63;100.00;98908.72;5071832;28;20605;-62
2023/04/12 08:10:22;;;;;;;2.03;1.23;;;;;;;10.70;100.00;98911.38;5071988;28;20040;-64
2023/04/12 08:12:47;;;;;;;4.68;1.30;;;;;;;10.67;100.00;98891.28;5071846;28;20036;-64
2023/04/12 08:15:12;;;;;;;2.88;1.35;;;;;;;10.65;100.00;98874.69;5070876;28;20102;-62
2023/04/12 08:17:38;;;;;;;2.67;1.60;;;;;;;10.67;100.00;98879.81;5071697;28;20082;-64
2023/04/12 08:20:04;;;;;;;4.55;1.60;;;;;;;10.75;100.00;98875.09;5071284;28;20063;-64
2023/04/12 08:22:29;;;;;;;3.13;1.90;;;;;;;10.84;100.00;98878.38;5070926;28;20089;-65
2023/04/12 08:24:55;;;;;;;3.03;1.42;;;;;;;10.92;100.00;98872.81;5070877;28;20443;-63
2023/04/12 08:27:20;;;;;;;3.70;1.60;;;;;;;11.00;100.00;98863.75;5071367;28;20047;-64
2023/04/12 08:29:45;;;;;;;2.00;1.40;;;;;;;11.02;100.00;98865.22;5071827;28;20051;-64
2023/04/12 08:32:11;;;;;;;2.53;1.52;;;;;;;11.18;100.00;98861.25;5071837;28;20408;-63
2023/04/12 08:34:37;;;;;;;2.03;1.40;;;;;;;11.25;100.00;98870.03;5071730;28;20044;-63
2023/04/12 08:37:03;;;;;;;3.05;1.50;;;;;;;11.32;100.00;98870.00;5071482;28;20135;-65
2023/04/12 08:39:30;;;;;;;2.33;1.83;;;;;;;11.33;100.00;98868.97;5071648;28;20072;-64
2023/04/12 08:41:56;;;;;;;4.90;1.98;;;;;;;11.39;100.00;98865.47;5071520;28;20052;-66
2023/04/12 08:44:34;;;;;;;2.33;1.80;;;;;;;11.47;100.00;98865.22;5071800;28;20079;-66
2023/04/12 08:47:00;;;;;;;;;;;;;;;11.51;100.00;98876.28;5071887;28;20048;-63
2023/04/12 08:49:25;;;;;;;3.65;1.90;;;;;;;11.51;100.00;98885.13;5071601;28;19916;-64
2023/04/12 08:51:53;;;;;;;4.90;1.77;;;;;;;11.50;100.00;98880.81;5071465;28;20123;-65
2023/04/12 08:54:19;;;;;;;3.20;1.70;;;;;;;11.52;100.00;98873.41;5071604;28;20060;-63
2023/04/12 08:56:46;;;;;;;2.80;1.52;;;;;;;11.47;100.00;98870.56;5071208;28;20075;-65
2023/04/12 08:59:12;;;;;;;8.10;2.53;;;;;;;11.52;100.00;98875.25;5071320;28;20039;-63
2023/04/12 09:01:40;;;;;;;2.55;1.50;;;;;;;11.44;100.00;98871.00;5071459;28;20082;-64
2023/04/12 09:04:06;;;;;;;2.92;1.30;;;;;;;11.51;100.00;98862.97;5071460;28;20040;-64
2023/04/12 09:06:32;;;;;;;6.68;2.10;;;;;;;11.37;100.00;98878.22;5071397;28;20036;-63
2023/04/12 09:08:59;;;;;;;3.63;1.58;;;;;;;11.36;100.00;98876.56;5074120;28;20036;-64
2023/04/12 09:11:28;;;;;;;2.47;1.52;;;;;;;11.30;100.00;98882.75;5075357;28;20048;-63
2023/04/12 09:13:55;;;;;;;1.85;1.65;;;;;;;11.31;100.00;98869.19;5075296;28;20067;-64
2023/04/12 09:16:40;;;;;;;1.90;1.27;;;;;;;11.29;100.00;98857.13;5074946;28;20048;-63
2023/04/12 09:19:06;;;;;;;4.65;1.92;;;;;;;11.28;100.00;98852.78;5074776;28;20397;-64
2023/04/12 09:21:33;;;;;;;3.05;1.90;;;;;;;11.27;100.00;98836.00;5074996;28;20029;-64
2023/04/12 09:24:09;;;;;;;1.98;1.38;;;;;;;11.36;100.00;98840.06;5074900;28;20393;-63
2023/04/12 09:26:35;;;;;;;1.92;1.20;;;;;;;11.40;100.00;98837.78;5074689;28;20037;-64
2023/04/12 09:29:02;;;;;;;2.60;1.58;;;;;;;11.41;100.00;98842.09;5074668;28;20064;-64
2023/04/12 09:31:28;;;;;;;3.35;1.60;;;;;;;11.40;100.00;98838.59;5073441;28;20373;-64
2023/04/12 09:34:05;;;;;;;7.57;1.90;;;;;;;11.44;100.00;98833.66;5074667;28;20044;-64
2023/04/12 09:36:40;;;;;;;6.30;2.00;;;;;;;11.44;100.00;98836.34;5074704;28;20032;-62
2023/04/12 09:39:06;;;;;;;2.25;1.48;;;;;;;11.45;100.00;98839.81;5074334;28;20032;-64
2023/04/12 09:41:32;;;;;;;2.67;1.60;;;;;;;11.43;100.00;98834.69;5074574;28;20111;-63
2023/04/12 09:43:59;;;;;;;2.70;1.58;;;;;;;11.44;100.00;98830.19;5074573;28;20462;-64
2023/04/12 09:46:24;;;;;;;6.30;1.77;;;;;;;11.44;100.00;98825.66;5074468;28;20055;-63
2023/04/12 09:48:52;;;;;;;2.25;1.77;;;;;;;11.47;100.00;98821.75;5074140;28;20075;-63
2023/04/12 09:51:32;;;;;;;2.30;1.30;;;;;;;11.42;100.00;98827.75;5074366;28;20078;-65
2023/04/12 09:54:02;;;;;;;5.35;1.55;;;;;;;11.39;100.00;98817.47;5074452;28;20116;-64
2023/04/12 09:56:32;;;;;;;2.28;1.60;;;;;;;11.38;100.00;98816.66;5074272;28;20024;-62
2023/04/12 09:59:03;;;;;;;2.67;1.27;;;;;;;11.46;100.00;98820.94;5073986;28;20044;-62
2023/04/12 10:01:37;;;;;;;1.88;1.25;;;;;;;11.47;100.00;98809.22;5074471;28;20036;-64
2023/04/12 10:04:08;;;;;;;2.38;1.63;;;;;;;11.45;100.00;98805.97;5072871;28;20055;-64
2023/04/12 10:06:34;;;;;;;2.45;1.10;;;;;;;11.47;100.00;98793.22;5074150;28;20044;-63
2023/04/12 10:09:03;;;;;;;2.70;1.25;;;;;;;11.51;100.00;98798.97;5073823;28;20355;-66
2023/04/12 10:11:29;;;;;;;3.17;1.35;;;;;;;11.57;100.00;98784.78;5072518;28;20039;-66
2023/04/12 10:14:00;;;;;;;1.25;1.10;;;;;;;11.70;100.00;98782.03;5074052;28;20098;-64
2023/04/12 10:16:26;;;;;;;1.85;1.15;;;;;;;11.73;100.00;98775.44;5073815;28;20040;-67
2023/04/12 10:18:53;;;;;;;2.97;1.10;;;;;;;11.85;100.00;98773.72;5073662;28;20039;-65
2023/04/12 10:21:19;;;;;;;1.67;1.10;;;;;;;11.91;100.00;98788.88;5073921;28;20123;-64
2023/04/12 10:23:46;;;;;;;6.03;1.23;;;;;;;11.97;100.00;98771.19;5073800;28;20045;-65
2023/04/12 10:26:14;;;;;;;3.45;1.58;;;;;;;12.06;100.00;98775.19;5073586;28;20086;-64
2023/04/12 10:28:45;;;;;;;2.72;1.38;;;;;;;12.17;100.00;98771.81;5073692;28;20387;-64
2023/04/12 10:31:31;;;;;;;0.68;0.65;;;;;;;12.26;100.00;98757.19;5073595;28;20040;-65
2023/04/12 10:34:01;;;;;;;2.45;0.95;;;;;;;12.30;100.00;98769.03;5072368;28;20089;-64
2023/04/12 10:36:50;;;;;;;2.53;1.30;;;;;;;12.42;100.00;98759.25;5073409;28;20097;-64
2023/04/12 10:39:15;;;;;;;2.13;1.30;;;;;;;12.37;100.00;98752.94;5073344;28;20512;-65
2023/04/12 10:42:15;;;;;;;1.80;1.00;;;;;;;12.34;100.00;98750.72;5073500;28;20060;-66
2023/04/12 10:44:41;;;;;;;2.03;1.17;;;;;;;12.33;100.00;98739.25;5073383;28;20040;-64
2023/04/12 10:47:08;;;;;;;2.78;1.10;;;;;;;12.38;100.00;98749.22;5072991;28;20076;-63
2023/04/12 10:49:34;;;;;;;1.45;1.00;;;;;;;12.53;100.00;98739.03;5073376;28;20036;-63
2023/04/12 10:52:02;;;;;;;1.02;0.90;;;;;;;12.62;100.00;98745.69;5073131;28;20083;-63
2023/04/12 10:54:28;;;;;;;1.50;1.10;;;;;;;12.68;96.20;98750.16;5073117;28;20477;-65
2023/04/12 10:56:54;;;;;;;1.42;0.82;;;;;;;12.80;99.21;98744.06;5072895;28;20066;-65
2023/04/12 10:59:49;;;;;;;1.70;0.82;;;;;;;13.00;95.97;98740.09;5073025;28;20037;-63
2023/04/12 11:02:15;;;;;;;1.55;0.90;;;;;;;13.24;97.38;98746.41;5073037;28;20184;-64
2023/04/12 11:05:07;;;;;;;1.27;0.90;;;;;;;13.43;93.69;98752.53;5071690;28;20105;-66
2023/04/12 11:07:52;;;;;;;1.50;0.95;;;;;;;13.36;93.03;98722.38;5072541;28;20111;-64
2023/04/12 11:10:37;;;;;;;1.65;1.13;;;;;;;13.34;90.50;98726.31;5072823;28;20105;-64
2023/04/12 11:13:07;;;;;;;1.58;0.90;;;;;;;13.37;91.29;98726.69;5072843;28;20043;-64
2023/04/12 11:15:33;;;;;;;1.50;1.02;;;;;;;13.53;90.18;98726.03;5072741;28;20040;-64
2023/04/12 11:17:59;;;;;;;2.90;1.08;;;;;;;13.97;87.08;98723.09;5072433;28;20047;-65
2023/04/12 11:20:26;;;;;;;1.65;1.10;;;;;;;14.15;82.92;98712.25;5072468;28;20500;-64
2023/04/12 11:22:53;;;;;;;1.63;1.02;;;;;;;14.10;82.38;98702.25;5072726;28;20059;-64
2023/04/12 11:25:21;;;;;;;1.13;0.88;;;;;;;14.26;84.89;98695.34;5071230;28;20037;-65
2023/04/12 11:27:50;;;;;;;1.10;0.80;;;;;;;14.34;80.95;98705.72;5054547;28;20128;-65
2023/04/12 11:30:16;;;;;;;2.38;0.80;;;;;;;14.34;80.52;98695.03;5072046;28;20113;-64
2023/04/12 11:32:44;;;;;;;1.15;0.70;;;;;;;14.34;79.65;98707.56;5072015;28;20052;-65
2023/04/12 11:35:09;;;;;;;;;;;;;;;14.35;79.63;98702.00;5061143;28;20148;-63
2023/04/12 11:37:37;;;;;;;0.60;0.52;;;;;;;14.41;79.95;98697.56;5060326;28;19923;-65
2023/04/12 11:40:08;;;;;;;2.55;1.05;;;;;;;14.36;78.79;98708.97;5062983;28;20952;-66
2023/04/12 11:42:34;;;;;;;3.75;1.00;;;;;;;14.51;78.06;98694.31;5061875;28;20033;-63
2023/04/12 11:44:59;;;;;;;1.17;0.80;;;;;;;14.70;78.41;98689.63;5061528;28;20033;-64
2023/04/12 11:47:25;;;;;;;0.95;0.80;;;;;;;14.72;77.65;98682.13;5062526;28;20035;-64
2023/04/12 11:49:55;;;;;;;0.88;0.60;;;;;;;14.82;74.95;98675.13;5061199;28;20100;-66
2023/04/12 11:52:27;;;;;;;0.95;0.70;;;;;;;14.95;75.06;98667.84;5061085;28;20051;-65
2023/04/12 11:54:55;;;;;;;0.65;0.50;;;;;;;14.91;73.04;98676.34;5062431;28;20029;-64
2023/04/12 11:57:20;;;;;;;1.65;0.90;;;;;;;15.10;72.41;98681.53;5062232;28;20041;-64
2023/04/12 11:59:47;;;;;;;1.20;0.80;;;;;;;15.29;71.32;98680.28;5060701;28;20048;-64
2023/04/12 12:02:14;;;;;;;1.10;0.70;;;;;;;15.40;70.62;98679.41;5070487;28;20508;-64
2023/04/12 12:04:42;;;;;;;0.90;0.70;;;;;;;15.43;70.28;98684.28;5072126;28;20029;-65
2023/04/12 12:07:08;;;;;;;;;;;;;;;15.73;71.80;98659.03;5072160;28;20044;-65
2023/04/12 12:09:34;;;;;;;2.38;0.95;;;;;;;16.22;68.80;98662.69;5072094;28;20343;-65
2023/04/12 12:12:00;;;;;;;0.90;0.90;;;;;;;16.53;63.67;98658.53;5071962;28;20040;-65
2023/04/12 12:14:26;;;;;;;0.90;0.50;;;;;;;16.24;63.13;98670.53;5071981;28;20046;-66
2023/04/12 12:16:54;;;;;;;0.55;0.38;;;;;;;16.18;65.13;98658.88;5071794;28;20040;-65
2023/04/12 12:19:45;;;;;;;2.17;0.80;;;;;;;16.38;64.75;98652.97;5071830;28;20508;-65
2023/04/12 12:22:21;;;;;;;1.75;0.77;;;;;;;16.10;64.55;98655.78;5069575;28;20060;-67
2023/04/12 12:24:50;;;;;;;1.27;0.75;;;;;;;15.86;64.73;98649.84;5071794;28;20044;-65
2023/04/12 12:27:24;;;;;;;1.20;0.68;;;;;;;16.08;66.68;98649.88;5071498;28;20136;-65
2023/04/12 12:29:52;;;;;;;1.15;0.57;;;;;;;16.63;63.92;98640.91;5070959;28;20059;-63
2023/04/12 12:32:18;;;;;;;1.35;0.52;;;;;;;16.87;63.20;98642.28;5071836;28;20506;-66
2023/04/12 12:34:55;;;;;;;2.83;0.75;;;;;;;17.19;60.82;98642.31;5071874;28;20417;-65
2023/04/12 12:37:28;;;;;;;1.02;0.70;;;;;;;17.20;60.79;98635.88;5071448;28;20040;-66
2023/04/12 12:40:20;;;;;;;1.25;0.65;;;;;;;17.32;60.99;98633.03;5071957;28;20131;-66
2023/04/12 12:42:50;;;;;;;1.15;0.73;;;;;;;17.36;60.69;98632.28;5073133;28;20024;-64
2023/04/12 12:45:17;;;;;;;1.52;0.60;;;;;;;17.32;60.55;98630.34;5075731;28;20044;-67
2023/04/12 12:47:53;;;;;;;0.43;0.43;;;;;;;17.14;60.73;98622.63;5075429;28;20486;-64
2023/04/12 12:50:24;;;;;;;1.95;0.52;;;;;;;16.61;60.81;98624.22;5075779;28;20047;-65
2023/04/12 12:52:50;;;;;;;1.52;0.65;;;;;;;17.14;60.81;98633.38;5075791;28;20131;-64
2023/04/12 12:55:17;;;;;;;1.58;0.85;;;;;;;16.86;61.09;98637.16;5075506;28;20052;-66
2023/04/12 12:57:44;;;;;;;0.82;0.50;;;;;;;16.64;63.35;98629.09;5075270;28;20045;-65
2023/04/12 13:00:14;;;;;;;2.58;0.60;;;;;;;15.97;65.58;98627.41;5075415;28;20040;-66
2023/04/12 13:02:41;;;;;;;1.75;0.70;;;;;;;15.59;68.38;98628.19;5075433;28;20056;-66
2023/04/12 13:05:06;;;;;;;0.80;0.65;;;;;;;15.31;69.48;98621.81;5075418;28;20040;-64
2023/04/12 13:07:32;;;;;;;1.50;0.70;;;;;;;15.24;70.70;98621.16;5075090;28;20032;-64
2023/04/12 13:09:58;;;;;;;0.93;0.82;;;;;;;15.37;71.00;98617.34;5075333;28;20647;-65
2023/04/12 13:12:24;;;;;;;1.17;0.50;;;;;;;15.44;70.41;98615.31;5075132;28;20043;-65
2023/04/12 13:14:50;;;;;;;0.98;0.60;;;;;;;15.45;69.92;98607.06;5075171;28;20040;-66
2023/04/12 13:17:15;;;;;;;1.02;0.60;;;;;;;15.56;70.25;98609.88;5074625;28;20040;-66
2023/04/12 13:19:41;;;;;;;0.82;0.60;;;;;;;15.80;69.39;98600.63;5075076;28;20047;-66
2023/04/12 13:22:07;;;;;;;1.65;0.60;;;;;;;16.46;68.45;98595.28;5075150;28;20439;-65
2023/04/12 13:24:34;;;;;;;0.82;0.40;;;;;;;17.04;62.46;98586.50;5075077;28;20040;-64
2023/04/12 13:26:59;;;;;;;1.23;0.30;;;;;;;17.32;59.05;98588.09;5074693;28;20032;-66
2023/04/12 13:29:25;;;;;;;0.75;0.45;;;;;;;17.83;58.85;98587.69;5074789;28;20051;-64
2023/04/12 13:31:50;;;;;;;0.95;0.65;;;;;;;18.16;58.59;98581.91;5074840;28;20048;-65
2023/04/12 13:34:16;;;;;;;0.50;0.40;;;;;;;18.60;56.25;98580.75;5074812;28;20040;-66
2023/04/12 13:36:41;;;;;;;0.60;0.55;;;;;;;18.38;54.56;98578.22;5074815;28;20064;-65
2023/04/12 13:39:06;;;;;;;0.95;0.60;;;;;;;18.60;55.09;98580.75;5074464;28;20077;-65
2023/04/12 13:41:33;;;;;;;0.73;0.60;;;;;;;18.51;54.79;98593.09;5074686;28;20386;-65
2023/04/12 13:43:59;;;;;;;1.08;0.73;;;;;;;18.30;55.54;98565.25;5074677;28;20393;-67
2023/04/12 13:46:24;;;;;;;1.23;0.60;;;;;;;17.62;57.14;98570.56;5074530;28;20111;-65
2023/04/12 13:48:50;;;;;;;0.68;0.40;;;;;;;17.35;59.21;98571.44;5074241;28;20119;-66
2023/04/12 13:51:16;;;;;;;0.40;0.40;;;;;;;17.01;61.48;98576.25;5073076;28;20068;-66
2023/04/12 13:53:42;;;;;;;0.30;0.30;;;;;;;16.73;63.95;98579.22;5073992;28;20068;-66
2023/04/12 13:56:09;;;;;;;0.90;0.70;;;;;;;16.16;64.77;98566.97;5074388;28;20063;-66
2023/04/12 13:58:35;;;;;;;0.47;0.40;;;;;;;16.27;66.99;98573.28;5074079;28;20033;-65
2023/04/12 14:01:00;;;;;;;0.40;0.38;;;;;;;15.86;69.91;98591.56;5074309;28;20486;-65
2023/04/12 14:03:26;;;;;;;1.38;0.45;;;;;;;15.67;71.23;98577.63;5074248;28;20036;-67
2023/04/12 14:05:51;;;;;;;1.10;0.50;;;;;;;15.54;73.36;98590.53;5074312;28;20494;-66
2023/04/12 14:08:17;;;;;;;0.88;0.57;;;;;;;15.27;74.94;98593.06;5073788;28;20041;-66
2023/04/12 14:10:42;;;;;;;0.32;0.20;;;;;;;15.09;78.33;98602.16;5074147;28;20028;-66
2023/04/12 14:13:07;;;;;;;0.93;0.70;;;;;;;14.97;81.51;98614.78;5074129;28;20473;-65
2023/04/12 14:15:33;;;;;;;1.35;0.65;;;;;;;14.70;82.07;98619.94;5073995;28;20044;-65
2023/04/12 14:17:58;;;;;;;0.43;0.40;;;;;;;14.64;83.11;98624.38;5073605;28;20037;-65
2023/04/12 14:20:23;;;;;;;0.88;0.68;;;;;;;14.42;86.84;98639.44;5073735;28;20036;-64
2023/04/12 14:22:49;;;;;;;0.63;0.60;;;;;;;14.06;91.76;98642.16;5073979;28;20039;-65
2023/04/12 14:25:14;;;;;;;0.93;0.80;;;;;;;13.49;99.82;98630.41;5072590;28;20059;-64
2023/04/12 14:27:40;;;;;;;1.42;0.80;;;;;;;12.97;100.00;98664.91;5073800;28;20374;-64
2023/04/12 14:30:06;;;;;;;1.42;0.73;;;;;;;12.74;100.00;98679.81;5073796;28;20040;-65
2023/04/12 14:32:32;;;;;;;0.90;0.63;;;;;;;12.30;100.00;98690.78;5073282;28;20036;-65
2023/04/12 14:34:57;;;;;;;1.23;0.77;;;;;;;12.41;100.00;98720.25;5073633;28;20037;-65
2023/04/12 14:37:23;;;;;;;0.55;0.52;;;;;;;12.19;100.00;98725.22;5073274;28;20051;-65
2023/04/12 14:39:49;;;;;;;0.60;0.60;;;;;;;12.14;100.00;98734.91;5073457;28;20139;-65
2023/04/12 14:42:14;;;;;;;1.35;0.63;;;;;;;11.98;100.00;98746.13;5073403;28;20078;-66
2023/04/12 14:44:40;;;;;;;0.73;0.45;;;;;;;11.69;100.00;98759.88;5073533;28;20041;-66
2023/04/12 14:47:05;;;;;;;1.33;0.57;;;;;;;11.63;100.00;98767.91;5073306;28;20107;-65
2023/04/12 14:49:31;;;;;;;0.88;0.55;;;;;;;11.63;100.00;98767.91;5073346;28;20132;-66
2023/04/12 14:51:56;;;;;;;0.40;0.30;;;;;;;11.38;100.00;98767.88;5073247;28;20085;-66
2023/04/12 14:54:21;;;;;;;0.88;0.40;;;;;;;11.31;100.00;98753.75;5073213;28;20051;-65
2023/04/12 14:56:47;;;;;;;1.45;0.57;;;;;;;11.34;100.00;98771.97;5072919;28;20037;-67
2023/04/12 14:59:13;;;;;;;0.82;0.70;;;;;;;11.38;100.00;98767.88;5072780;28;20489;-66
2023/04/12 15:01:40;;;;;;;1.48;0.70;;;;;;;11.37;100.00;98772.38;5073135;28;20033;-67
2023/04/12 15:04:05;;;;;;;1.33;0.70;;;;;;;11.23;100.00;98764.69;5073098;28;20058;-66
2023/04/12 15:06:34;;;;;;;1.55;0.80;;;;;;;11.26;100.00;98765.06;5072132;28;20505;-66
2023/04/12 15:09:00;;;;;;;1.35;0.57;;;;;;;11.25;100.00;98789.25;5072641;28;20032;-66
2023/04/12 15:11:26;;;;;;;0.47;0.40;;;;;;;11.16;100.00;98785.22;5072824;28;20036;-67
2023/04/12 15:13:52;;;;;;;0.57;0.57;;;;;;;11.10;100.00;98777.03;5072915;28;20504;-66
2023/04/12 15:16:18;;;;;;;0.90;0.55;;;;;;;11.12;100.00;98785.63;5072779;28;20040;-66
2023/04/12 15:18:43;;;;;;;0.88;0.50;;;;;;;10.98;100.00;98784.06;5072346;28;20040;-65
2023/04/12 15:21:10;;;;;;;0.80;0.50;;;;;;;10.87;100.00;98782.84;5072653;28;20401;-65
2023/04/12 15:23:38;;;;;;;1.38;0.50;;;;;;;10.89;100.00;98774.66;5072669;28;20051;-66
2023/04/12 15:26:13;;;;;;;;;;;;;;;10.93;100.00;98789.19;5072852;28;20090;-65
2023/04/12 15:28:39;;;;;;;1.75;0.43;;;;;;;11.02;100.00;98790.59;5072373;28;19916;-65
2023/04/12 15:31:05;;;;;;;0.75;0.55;;;;;;;11.03;100.00;98770.09;5072492;28;20445;-66
2023/04/12 15:33:33;;;;;;;0.82;0.52;;;;;;;10.97;100.00;98771.75;5072509;28;20123;-65
2023/04/12 15:36:02;;;;;;;0.95;0.63;;;;;;;11.14;100.00;98782.75;5072302;28;20102;-65
2023/04/12 15:38:28;;;;;;;1.30;0.60;;;;;;;11.08;100.00;98771.09;5072088;28;20036;-65
2023/04/12 15:40:56;;;;;;;1.55;0.45;;;;;;;11.13;100.00;98765.94;5072359;28;20051;-66
2023/04/12 15:43:22;;;;;;;1.65;0.70;;;;;;;11.16;100.00;98763.91;5072401;28;20040;-65
2023/04/12 15:45:51;;;;;;;1.52;1.15;;;;;;;11.25;100.00;98768.75;5072269;28;20037;-65
2023/04/12 15:48:17;;;;;;;1.73;0.70;;;;;;;11.29;100.00;98759.31;5071938;28;20036;-66
2023/04/12 15:50:42;;;;;;;2.70;0.95;;;;;;;11.34;100.00;98747.97;5072286;28;20448;-65
2023/04/12 15:53:07;;;;;;;0.43;0.43;;;;;;;11.30;100.00;98773.44;5072247;28;20036;-65
2023/04/12 15:55:33;;;;;;;0.57;0.50;;;;;;;11.34;100.00;98761.31;5072124;28;20048;-65